Data for 06/04/2006

Time Sea-Level Adjusted Pressure Absolute Pressure Temperature Relative Humidity Dew Point   
(mb) (inHg) (mb) (inHg) (C) (F) (%) (C) (F)
00:05 1019 30.09 849 25.07 15.4 59.7 67 9.3 48.7
00:10 1019 30.09 849 25.07 15.5 59.9 66 9.3 48.7
00:15 1019 30.09 849 25.07 15.5 59.9 66 9.1 48.4
00:20 1019 30.09 849 25.07 15.5 59.8 65 9.1 48.4
00:25 1019 30.09 849 25.07 15.6 60 67 9.6 49.3
00:30 1019 30.09 848 25.04 15.2 59.4 70 9.8 49.6
00:35 1019 30.09 848 25.04 15 59.1 70 9.6 49.4
00:40 1019 30.09 848 25.04 15 59 71 9.8 49.6
00:45 1019 30.09 848 25.04 15.1 59.1 71 10 50
00:50 1019 30.09 848 25.04 15.1 59.2 70 9.6 49.4
00:55 1019 30.09 848 25.04 15 59 70 9.5 49.2
01:00 1019 30.09 848 25.04 15 59 71 9.8 49.6
01:05 1019 30.09 848 25.04 15.2 59.3 73 10.3 50.6
01:10 1019 30.09 848 25.04 15.2 59.3 70 9.9 49.8
01:15 1019 30.09 848 25.04 14.7 58.4 75 10.3 50.6
01:20 1019 30.09 848 25.04 14.5 58.1 76 10.3 50.5
01:25 1019 30.09 848 25.04 14.7 58.5 76 10.6 51
01:30 1019 30.09 848 25.04 14.8 58.6 73 10 50
01:35 1019 30.09 848 25.04 14.8 58.6 74 10.3 50.6
01:40 1019 30.09 848 25.04 14.4 57.8 77 10.4 50.6
01:45 1019 30.09 848 25.04 14.2 57.5 78 10.4 50.7
01:50 1019 30.09 848 25.04 14.1 57.3 78 10.3 50.5
01:55 1019 30.09 848 25.04 14 57.2 78 10.2 50.4
02:00 1019 30.09 848 25.04 14.2 57.5 77 10.3 50.5
02:05 1019 30.09 848 25.04 14.2 57.5 80 10.8 51.4
02:10 1019 30.09 848 25.04 14.2 57.5 78 10.4 50.7
02:15 1019 30.09 848 25.04 14 57.3 80 10.6 51.1
02:20 1019 30.09 848 25.04 14 57.1 80 10.6 51.1
02:25 1019 30.09 848 25.04 13.8 56.9 81 10.6 51.1
02:30 1019 30.09 848 25.04 13.7 56.6 82 10.7 51.3
02:35 1019 30.09 848 25.04 13.4 56.2 84 10.7 51.3
02:40 1019 30.09 848 25.04 13.3 56 85 10.9 51.6
02:45 1019 30.09 848 25.04 13.2 55.8 85 10.8 51.5
02:50 1019 30.09 848 25.04 13.2 55.8 86 10.9 51.6
02:55 1019 30.09 848 25.04 13.2 55.8 85 10.8 51.4
03:00 1019 30.09 848 25.04 13.1 55.6 84 10.5 51
03:05 1019 30.09 848 25.04 13.1 55.7 83 10.4 50.7
03:10 1019 30.09 848 25.04 13.1 55.6 84 10.4 50.8
03:15 1019 30.09 848 25.04 13.1 55.6 84 10.5 50.8
03:20 1018 30.06 848 25.04 13 55.5 84 10.4 50.7
03:25 1018 30.06 848 25.04 13.2 55.7 84 10.6 51.1
03:30 1018 30.06 848 25.04 13 55.4 85 10.6 51.1
03:35 1018 30.06 848 25.04 13 55.5 84 10.4 50.8
03:40 1018 30.06 848 25.04 13.1 55.5 83 10.2 50.4
03:45 1019 30.09 848 25.04 13 55.5 83 10.3 50.5
03:50 1019 30.09 848 25.04 13 55.3 83 10.2 50.3
03:55 1018 30.06 848 25.04 13.1 55.6 83 10.4 50.6
04:00 1018 30.06 848 25.04 13.1 55.5 82 10.2 50.3
04:05 1018 30.06 848 25.04 13.2 55.7 81 10.1 50.1
04:10 1018 30.06 848 25.04 13.2 55.8 81 10.1 50.2
04:15 1018 30.06 848 25.04 13.3 55.9 80 10 50
04:20 1018 30.06 848 25.04 13.3 55.9 81 10.2 50.3
04:25 1018 30.06 848 25.04 13.5 56.2 80 10 50.1
04:30 1018 30.06 848 25.04 13.1 55.6 83 10.4 50.7
04:35 1018 30.06 848 25.04 12.6 54.6 87 10.4 50.7
04:40 1018 30.06 847 25.01 12.2 54 88 10.3 50.5
04:45 1018 30.06 847 25.01 12.1 53.8 89 10.4 50.7
04:50 1018 30.06 848 25.04 12.3 54.1 88 10.4 50.8
04:55 1018 30.06 848 25.04 12.2 53.9 88 10.3 50.5
05:00 1018 30.06 848 25.04 12 53.6 88 10.1 50.1
05:05 1018 30.06 848 25.04 12 53.5 88 10 50
05:10 1018 30.06 847 25.01 11.8 53.2 89 10 49.9
05:15 1018 30.06 847 25.01 11.8 53.2 87 9.6 49.3
05:20 1018 30.06 847 25.01 11.9 53.4 86 9.6 49.3
05:25 1018 30.06 847 25.01 12 53.5 85 9.6 49.2
05:30 1018 30.06 847 25.01 11.9 53.5 85 9.5 49.1
05:35 1018 30.06 847 25.01 11.9 53.5 87 9.9 49.7
05:40 1018 30.06 847 25.01 12 53.6 85 9.6 49.3
05:45 1018 30.06 847 25.01 11.7 53.1 87 9.6 49.3
05:50 1018 30.06 847 25.01 11.6 52.8 87 9.5 49.1
05:55 1018 30.06 847 25.01 11.6 52.9 86 9.4 48.9
06:00 1018 30.06 847 25.01 11.7 53.1 88 9.8 49.7
06:05 1018 30.06 847 25.01 11.8 53.2 85 9.3 48.8
06:10 1018 30.06 847 25.01 11.7 53 84 9.2 48.5
06:15 1018 30.06 847 25.01 11.7 53 85 9.3 48.7
06:20 1018 30.06 848 25.04 11.6 52.9 85 9.1 48.4
06:25 1018 30.06 848 25.04 11.6 52.9 84 9.1 48.3
06:30 1018 30.06 848 25.04 11.8 53.2 83 8.9 48.1
06:35 1019 30.09 848 25.04 11.9 53.4 83 9 48.3
06:40 1019 30.09 848 25.04 12 53.6 83 9.2 48.6
06:45 1018 30.06 848 25.04 12.1 53.8 83 9.3 48.7
06:50 1018 30.06 848 25.04 12.2 54 82 9.3 48.7
06:55 1018 30.06 848 25.04 12.6 54.7 81 9.4 48.9
07:00 1018 30.06 848 25.04 13 55.3 80 9.6 49.2
07:05 1018 30.06 847 25.01 12.9 55.2 80 9.5 49.1
07:10 1018 30.06 848 25.04 12.9 55.1 81 9.6 49.3
07:15 1018 30.06 848 25.04 13.1 55.5 80 9.7 49.5
07:20 1018 30.06 848 25.04 13.2 55.7 79 9.6 49.3
07:25 1018 30.06 848 25.04 13 55.5 80 9.7 49.5
07:30 1018 30.06 848 25.04 12.8 55 81 9.6 49.3
07:35 1018 30.06 847 25.01 12.7 54.9 81 9.7 49.4
07:40 1018 30.06 847 25.01 12.8 55 81 9.6 49.2
07:45 1018 30.06 847 25.01 13 55.4 80 9.6 49.4
07:50 1018 30.06 847 25.01 13.7 56.7 75 9.4 49
07:55 1018 30.06 847 25.01 14.3 57.8 74 9.7 49.5
08:00 1018 30.06 847 25.01 14.6 58.3 73 9.8 49.6
08:05 1018 30.06 847 25.01 14.7 58.5 72 9.7 49.5
08:10 1018 30.06 847 25.01 15.2 59.3 69 9.6 49.3
08:15 1018 30.06 847 25.01 15.6 60 65 9.2 48.5
08:20 1018 30.06 847 25.01 16.3 61.3 60 8.7 47.6
08:25 1018 30.06 847 25.01 16.9 62.4 59 8.8 47.9
08:30 1018 30.06 847 25.01 16.6 61.8 60 8.8 47.8
08:35 1018 30.06 847 25.01 16.8 62.2 58 8.6 47.4
08:40 1018 30.06 847 25.01 16.9 62.4 57 8.5 47.4
08:45 1018 30.06 847 25.01 17.3 63.1 57 8.7 47.6
08:50 1018 30.06 847 25.01 17.8 64.1 55 8.6 47.6
08:55 1018 30.06 847 25.01 18.1 64.6 53 8.6 47.5
09:00 1018 30.06 847 25.01 17.6 63.7 56 8.8 47.8
09:05 1018 30.06 847 25.01 17 62.5 57 8.4 47.2
09:10 1018 30.06 847 25.01 17.4 63.4 55 8.4 47.2
09:15 1018 30.06 847 25.01 17.8 64.1 54 8.6 47.4
09:20 1018 30.06 847 25.01 17.7 63.8 55 8.5 47.3
09:25 1018 30.06 847 25.01 17.5 63.5 52 7.7 45.8
09:30 1017 30.03 847 25.01 18.3 64.9 50 7.8 46
09:35 1017 30.03 847 25.01 18.7 65.6 47 7.4 45.3
09:40 1017 30.03 847 25.01 19.1 66.5 45 6.9 44.5
09:45 1017 30.03 847 25.01 19.1 66.4 46 7.2 45
09:50 1017 30.03 846 24.98 19.2 66.5 47 7.8 46
09:55 1017 30.03 846 24.98 19 66.1 47 7.7 45.8
10:00 1017 30.03 846 24.98 19.7 67.4 46 8 46.3
10:05 1017 30.03 846 24.98 19.5 67.1 45 7.4 45.3
10:10 1017 30.03 846 24.98 19.8 67.6 47 8.2 46.8
10:15 1017 30.03 846 24.98 19 66.1 49 8 46.5
10:20 1017 30.03 846 24.98 19.2 66.6 46 7.4 45.4
10:25 1017 30.03 846 24.98 20.5 68.9 43 7.8 46
10:30 1017 30.03 846 24.98 21.3 70.4 42 8 46.4
10:35 1017 30.03 846 24.98 20.3 68.5 47 8.6 47.5
10:40 1017 30.03 846 24.98 20.3 68.5 44 7.7 45.8
10:45 1016 30 846 24.98 20.7 69.2 43 7.7 45.9
10:50 1016 30 845 24.95 21.6 71 42 8.2 46.8
10:55 1016 30 845 24.95 21.8 71.3 42 8.6 47.5
11:00 1016 30 845 24.95 21.1 69.9 45 8.9 48
11:05 1016 30 845 24.95 21.2 70.2 42 7.8 46.1
11:10 1016 30 845 24.95 21.9 71.4 41 8.3 46.9
11:15 1016 30 845 24.95 22.1 71.7 38 7.4 45.3
11:20 1016 30 845 24.95 21.2 70.1 42 7.8 46.1
11:25 1016 30 845 24.95 21.8 71.3 40 7.9 46.2
11:30 1016 30 845 24.95 22.7 72.9 40 8.4 47.2
11:35 1016 30 845 24.95 22.8 73.1 38 8 46.4
11:40 1016 30 845 24.95 22.7 72.8 38 7.8 46
11:45 1016 30 845 24.95 23.1 73.6 35 6.9 44.3
11:50 1016 30 845 24.95 23.4 74.2 35 7.1 44.8
11:55 1015 29.97 845 24.95 23.5 74.4 35 7.3 45.2
12:00 1015 29.97 845 24.95 23.1 73.6 38 8.1 46.6
12:05 1015 29.97 845 24.95 22.3 72.2 39 8 46.4
12:10 1015 29.97 845 24.95 23.1 73.6 35 7.1 44.8
12:15 1015 29.97 844 24.92 23.8 74.8 33 6.9 44.4
12:20 1015 29.97 844 24.92 24.7 76.4 30 6.2 43.1
12:25 1015 29.97 844 24.92 24.7 76.4 30 6.1 43.1
12:30 1015 29.97 844 24.92 24 75.2 33 6.8 44.2
12:35 1015 29.97 844 24.92 23.5 74.3 34 7.2 44.9
12:40 1015 29.97 844 24.92 24.1 75.4 30 5.7 42.2
12:45 1015 29.97 844 24.92 24.7 76.5 29 6 42.8
12:50 1015 29.97 844 24.92 24.5 76 30 6 42.7
12:55 1014 29.94 844 24.92 23.6 74.5 31 5.7 42.2
13:00 1014 29.94 843 24.89 24.4 75.9 29 5.6 42
13:05 1014 29.94 843 24.89 25.4 77.8 29 6.1 43.1
13:10 1014 29.94 843 24.89 25.7 78.2 29 6.4 43.5
13:15 1014 29.94 843 24.89 26.4 79.5 27 6.4 43.6
13:20 1014 29.94 843 24.89 25.8 78.4 29 6.5 43.6
13:25 1014 29.94 843 24.89 24.7 76.5 29 5.6 42
13:30 1013 29.91 843 24.89 24.9 76.7 29 6 42.8
13:35 1013 29.91 843 24.89 24.5 76 30 6.1 42.9
13:40 1013 29.91 842 24.86 25.5 78 27 5.6 42.1
13:45 1013 29.91 842 24.86 26.1 78.9 29 6.8 44.2
13:50 1013 29.91 842 24.86 25.2 77.3 27 5.3 41.5
13:55 1013 29.91 842 24.86 25.1 77.2 28 5.7 42.2
14:00 1013 29.91 842 24.86 25.4 77.6 28 5.6 42.2
14:05 1013 29.91 842 24.86 25.8 78.5 26 5.2 41.4
14:10 1013 29.91 842 24.86 25.3 77.5 28 5.5 41.9
14:15 1013 29.91 842 24.86 25.7 78.2 26 4.8 40.6
14:20 1013 29.91 842 24.86 26.3 79.4 26 5.6 42.1
14:25 1012 29.88 842 24.86 26.1 78.9 25 5 41
14:30 1012 29.88 841 24.83 26.4 79.5 25 5 40.9
14:35 1012 29.88 841 24.83 26.4 79.6 26 5.7 42.2
14:40 1012 29.88 841 24.83 25.9 78.7 23 3.5 38.3
14:45 1012 29.88 841 24.83 26.3 79.4 23 3.6 38.5
14:50 1012 29.88 841 24.83 27 80.7 22 3.7 38.6
14:55 1012 29.88 841 24.83 26.2 79.2 22 3.3 38
15:00 1012 29.88 841 24.83 25.8 78.5 23 3.6 38.5
15:05 1011 29.85 841 24.83 25.4 77.7 27 5.5 41.8
15:10 1011 29.85 841 24.83 24.8 76.6 26 4.4 39.9
15:15 1011 29.85 841 24.83 24.8 76.7 26 4 39.3
15:20 1011 29.85 840 24.81 24.6 76.2 27 4.6 40.2
15:25 1011 29.85 840 24.81 24.6 76.2 30 6.1 43
15:30 1011 29.85 840 24.81 25.2 77.3 27 5.3 41.5
15:35 1011 29.85 840 24.81 25.9 78.6 22 2.8 37.1
15:40 1011 29.85 840 24.81 25.7 78.3 22 2.8 37
15:45 1011 29.85 840 24.81 26.1 78.9 21 2.4 36.3
15:50 1011 29.85 840 24.81 26 78.8 21 1.9 35.5
15:55 1011 29.85 840 24.81 25.6 78.1 23 3 37.3
16:00 1011 29.85 840 24.81 25.3 77.5 21 1.9 35.5
16:05 1011 29.85 840 24.81 25 76.9 23 2.7 36.9
16:10 1011 29.85 840 24.81 24.7 76.5 25 3.9 38.9
16:15 1011 29.85 840 24.81 24.4 76 26 4 39.2
16:20 1011 29.85 840 24.81 24.1 75.4 27 4.3 39.7
16:25 1012 29.88 841 24.83 24.1 75.5 27 4.2 39.6
16:30 1012 29.88 841 24.83 24 75.1 31 5.9 42.5
16:35 1013 29.91 842 24.86 20.9 69.7 41 7.3 45.1
16:40 1013 29.91 842 24.86 19 66.1 59 10.9 51.6
16:45 1013 29.91 842 24.86 17.1 62.7 63 10 50.1
16:50 1013 29.91 842 24.86 16.8 62.3 54 7.7 45.8
16:55 1013 29.91 842 24.86 17.4 63.3 50 7 44.5
17:00 1013 29.91 842 24.86 18.1 64.6 59 10.1 50.2
17:05 1013 29.91 842 24.86 18.5 65.2 49 7.5 45.6
17:10 1013 29.91 842 24.86 19.5 67 41 5.9 42.7
17:15 1013 29.91 842 24.86 20 68.1 47 8.4 47.2
17:20 1013 29.91 842 24.86 20 68 48 8.9 48
17:25 1013 29.91 842 24.86 19.3 66.7 55 10.2 50.4
17:30 1013 29.91 842 24.86 18.3 64.9 63 11.2 52.2
17:35 1013 29.91 842 24.86 17 62.6 65 10.5 50.9
17:40 1013 29.91 842 24.86 17 62.6 65 10.3 50.6
17:45 1013 29.91 842 24.86 17.1 62.9 63 10.2 50.3
17:50 1013 29.91 842 24.86 17.4 63.3 61 9.8 49.7
17:55 1013 29.91 842 24.86 17.6 63.8 59 9.7 49.5
18:00 1013 29.91 842 24.86 17.8 64.1 62 10.5 51
18:05 1013 29.91 842 24.86 18.1 64.5 59 10.1 50.2
18:10 1014 29.94 843 24.89 18.3 64.9 61 10.7 51.3
18:15 1014 29.94 843 24.89 17.6 63.7 72 12.6 54.7
18:20 1014 29.94 843 24.89 15.7 60.3 75 11.4 52.5
18:25 1014 29.94 843 24.89 15.1 59.1 79 11.5 52.6
18:30 1014 29.94 844 24.92 14.8 58.7 80 11.4 52.6
18:35 1014 29.94 844 24.92 14.5 58.1 82 11.6 52.8
18:40 1014 29.94 843 24.89 14.5 58 84 11.8 53.2
18:45 1014 29.94 844 24.92 14.6 58.3 84 11.9 53.5
18:50 1014 29.94 843 24.89 15.1 59.2 76 11.1 51.9
18:55 1014 29.94 843 24.89 15.9 60.6 76 11.7 53
19:00 1014 29.94 843 24.89 16.3 61.3 75 11.9 53.4
19:05 1013 29.91 843 24.89 16 60.8 77 12 53.6
19:10 1013 29.91 843 24.89 15.8 60.5 77 11.8 53.3
19:15 1014 29.94 843 24.89 15.7 60.2 78 11.9 53.5
19:20 1014 29.94 843 24.89 15.5 59.9 76 11.3 52.3
19:25 1014 29.94 843 24.89 15.4 59.7 76 11.2 52.1
19:30 1014 29.94 843 24.89 15.4 59.7 76 11.1 52
19:35 1014 29.94 843 24.89 15.4 59.8 75 11 51.8
19:40 1014 29.94 843 24.89 15.5 60 72 10.6 51.1
19:45 1014 29.94 843 24.89 15.7 60.2 73 10.9 51.6
19:50 1014 29.94 843 24.89 15.8 60.4 71 10.7 51.2
19:55 1014 29.94 843 24.89 15.9 60.6 70 10.6 51
20:00 1014 29.94 843 24.89 16 60.7 71 10.7 51.3
20:05 1014 29.94 843 24.89 16.2 61.1 70 10.7 51.3
20:10 1014 29.94 844 24.92 16.4 61.6 69 10.8 51.5
20:15 1014 29.94 844 24.92 16.2 61.1 70 10.7 51.3
20:20 1014 29.94 844 24.92 16.2 61.1 69 10.5 51
20:25 1014 29.94 844 24.92 16.3 61.4 70 10.9 51.6
20:30 1015 29.97 844 24.92 16.3 61.4 71 11.1 51.9
20:35 1015 29.97 844 24.92 16.2 61.1 72 11.2 52.2
20:40 1015 29.97 844 24.92 16.1 61 73 11.3 52.3
20:45 1015 29.97 844 24.92 16 60.8 73 11.2 52.2
20:50 1015 29.97 844 24.92 15.8 60.5 74 11.2 52.2
20:55 1015 29.97 844 24.92 15.7 60.3 75 11.4 52.5
21:00 1015 29.97 844 24.92 15.6 60 76 11.5 52.7
21:05 1015 29.97 844 24.92 15.5 59.8 77 11.5 52.8
21:10 1015 29.97 844 24.92 15.3 59.5 78 11.4 52.6
21:15 1015 29.97 844 24.92 15.2 59.4 77 11.3 52.4
21:20 1015 29.97 844 24.92 15.1 59.2 78 11.3 52.3
21:25 1015 29.97 844 24.92 15.2 59.3 78 11.3 52.4
21:30 1015 29.97 844 24.92 15 59 78 11.3 52.4
21:35 1016 30 845 24.95 14.9 58.9 79 11.4 52.4
21:40 1016 30 845 24.95 14.9 58.9 79 11.3 52.4
21:45 1016 30 845 24.95 14.9 58.8 80 11.5 52.8
21:50 1016 30 845 24.95 14.8 58.7 80 11.5 52.7
21:55 1016 30 845 24.95 14.8 58.6 81 11.6 52.9
22:00 1016 30 846 24.98 14.6 58.3 84 11.9 53.5
22:05 1016 30 845 24.95 14.2 57.6 87 12 53.7
22:10 1016 30 845 24.95 14.2 57.6 86 11.9 53.4
22:15 1016 30 846 24.98 14.1 57.3 85 11.5 52.8
22:20 1017 30.03 846 24.98 13.8 56.9 83 11 51.9
22:25 1017 30.03 846 24.98 13.6 56.4 82 10.6 51
22:30 1017 30.03 846 24.98 13.2 55.8 83 10.4 50.7
22:35 1017 30.03 846 24.98 13.1 55.5 82 10.1 50.2
22:40 1017 30.03 846 24.98 12.9 55.2 81 9.8 49.7
22:45 1017 30.03 846 24.98 12.8 55.1 82 9.8 49.7
22:50 1017 30.03 846 24.98 12.8 55 82 9.8 49.7
22:55 1017 30.03 846 24.98 12.9 55.3 81 9.9 49.7
23:00 1017 30.03 846 24.98 13 55.4 82 10.1 50.1
23:05 1017 30.03 846 24.98 13.1 55.5 80 9.8 49.6
23:10 1017 30.03 846 24.98 13.2 55.7 79 9.7 49.4
23:15 1017 30.03 846 24.98 13.1 55.5 81 9.9 49.8
23:20 1017 30.03 846 24.98 12.7 54.8 85 10.2 50.3
23:25 1017 30.03 846 24.98 12.3 54.2 86 10 50
23:30 1017 30.03 846 24.98 12.3 54.2 85 9.9 49.8
23:35 1017 30.03 846 24.98 12.3 54.2 83 9.6 49.2
23:40 1017 30.03 846 24.98 12.4 54.4 84 9.9 49.7
23:45 1017 30.03 846 24.98 12.3 54.2 84 9.8 49.6
23:50 1017 30.03 846 24.98 12.4 54.2 83 9.6 49.3
23:55 1017 30.03 846 24.98 12.4 54.3 82 9.5 49.1
24:00 1017 30.03 846 24.98 12.4 54.4 83 9.7 49.5